Saint George, Georgia
Current Conditions -  °F | °C
As of 10:56 PM on Saturday 25 Oct 2014 (Local Time) from KJAX Reporting Station
Clear Clear  
Wind Chill: 53°   Ceiling: Unl
Heat Index: 53°   Visibility: 10mi
Dew Point: 53°   Wind: 3mph
Humidity: 100%   Direction: 260°W
Pressure: 30.02"   Gusts: NA
Location:  30.52°N, 82.04°W
Report Text: KJAX 260256Z 26003KT 10SM CLR 12/12 A3002 RMK AO2 SLP164 T01170117 51010
Loading
Personal Weather Stations






























Interactive Weather Map
Tropical Storm Tracking
New forecast layout! Learn more

10-Day Weather Forecast

Advertisements
Track Severe Weather on mobile